createdAt,value
2024-05-09T00:00:22.315Z,8.1581
2024-05-09T00:01:18.970Z,7.5264
2024-05-09T00:02:21.490Z,7.5677
2024-05-09T00:03:24.061Z,7.6007
2024-05-09T00:04:26.635Z,7.5866
2024-05-09T00:05:29.365Z,7.4621
2024-05-09T00:06:31.867Z,7.7894
2024-05-09T00:07:34.368Z,7.6066
2024-05-09T00:08:37.219Z,7.6339
2024-05-09T00:09:39.522Z,7.5762
2024-05-09T00:10:42.206Z,8.2232
2024-05-09T00:11:44.733Z,8.0874
2024-05-09T00:12:47.317Z,7.7243
2024-05-09T00:13:49.872Z,7.5183
2024-05-09T00:14:52.634Z,7.4312
2024-05-09T00:15:55.010Z,7.8359
2024-05-09T00:16:57.649Z,7.5955
2024-05-09T00:18:00.402Z,8.0086
2024-05-09T00:19:02.857Z,7.5680
2024-05-09T00:20:14.245Z,7.8163
2024-05-09T00:21:07.978Z,7.7106
2024-05-09T00:22:10.522Z,7.7393
2024-05-09T00:23:13.723Z,8.1902
2024-05-09T00:24:15.685Z,7.7586
2024-05-09T00:25:18.296Z,7.5948
2024-05-09T00:26:20.911Z,7.4232
2024-05-09T00:27:23.466Z,7.8605
2024-05-09T00:28:26.048Z,8.1605
2024-05-09T00:29:28.710Z,7.8755
2024-05-09T00:30:34.979Z,7.9466
2024-05-09T00:31:33.767Z,8.4685
2024-05-09T00:32:36.605Z,8.3713
2024-05-09T00:33:39.139Z,7.8434
2024-05-09T00:34:41.512Z,7.7756
2024-05-09T00:35:44.101Z,8.2569
2024-05-09T00:36:46.679Z,8.0365
2024-05-09T00:37:49.254Z,7.8475
2024-05-09T00:38:51.815Z,7.8056
2024-05-09T00:39:54.415Z,8.0212
2024-05-09T00:40:57.038Z,7.7482
2024-05-09T00:41:59.583Z,8.0848
2024-05-09T00:43:02.148Z,7.7443
2024-05-09T00:44:04.769Z,8.1942
2024-05-09T00:45:07.306Z,8.3675
2024-05-09T00:46:09.923Z,7.7403
2024-05-09T00:47:12.555Z,8.0502
2024-05-09T00:48:17.721Z,8.1135
2024-05-09T00:49:17.794Z,7.9296
2024-05-09T00:50:29.354Z,7.8278
2024-05-09T00:51:22.866Z,8.1474
2024-05-09T00:52:25.406Z,7.9810
2024-05-09T00:53:28.055Z,8.3872
2024-05-09T00:54:30.551Z,7.7918
2024-05-09T00:55:33.171Z,8.0047
2024-05-09T00:56:35.807Z,8.4590
2024-05-09T00:57:38.300Z,8.0655
2024-05-09T00:58:40.894Z,8.1401
2024-05-09T00:59:43.466Z,8.3452
2024-05-09T01:00:46.162Z,8.4793
2024-05-09T01:01:48.774Z,8.6740
2024-05-09T01:02:51.304Z,8.5194
2024-05-09T01:03:54.054Z,8.5832
2024-05-09T01:04:56.463Z,8.5160
2024-05-09T01:05:59.074Z,8.1186
2024-05-09T01:07:01.600Z,8.6950
2024-05-09T01:08:04.212Z,8.6655
2024-05-09T01:09:06.748Z,8.3549
2024-05-09T01:10:14.039Z,8.1029
2024-05-09T01:11:11.966Z,8.0109
2024-05-09T01:12:14.680Z,8.0416
2024-05-09T01:13:17.127Z,8.5642
2024-05-09T01:14:19.690Z,8.2493
2024-05-09T01:15:22.207Z,8.2656
2024-05-09T01:16:24.799Z,8.3461
2024-05-09T01:17:27.512Z,8.4819
2024-05-09T01:18:30.089Z,8.3080
2024-05-09T01:19:32.833Z,8.4062
2024-05-09T01:20:41.514Z,8.0155
2024-05-09T01:21:37.717Z,8.4549
2024-05-09T01:22:40.300Z,8.8930
2024-05-09T01:23:42.977Z,8.5155
2024-05-09T01:24:45.452Z,8.2856
2024-05-09T01:25:48.090Z,8.2895
2024-05-09T01:26:50.621Z,8.0945
2024-05-09T01:27:53.207Z,8.5654
2024-05-09T01:28:55.830Z,9.3592
2024-05-09T01:29:58.368Z,8.3709
2024-05-09T01:31:01.007Z,8.1376
2024-05-09T01:32:03.637Z,8.5369
2024-05-09T01:33:07.967Z,8.4254
2024-05-09T01:34:08.806Z,8.3506
2024-05-09T01:35:11.391Z,7.9845
2024-05-09T01:36:13.946Z,8.2762
2024-05-09T01:37:16.559Z,8.7196
2024-05-09T01:38:19.136Z,8.7466
2024-05-09T01:39:21.705Z,8.1594
2024-05-09T01:40:33.489Z,9.0401
2024-05-09T01:41:26.946Z,8.9276
2024-05-09T01:42:29.453Z,8.8192
2024-05-09T01:43:32.051Z,8.0001
2024-05-09T01:44:34.692Z,8.7330
2024-05-09T01:45:37.207Z,8.8190
2024-05-09T01:46:39.821Z,8.1016
2024-05-09T01:47:42.693Z,8.3698
2024-05-09T01:48:45.028Z,8.6991
2024-05-09T01:49:47.637Z,8.2243
2024-05-09T01:50:50.156Z,8.3542
2024-05-09T01:51:52.716Z,8.3899
2024-05-09T01:52:55.338Z,8.5376
2024-05-09T01:53:57.905Z,8.5106
2024-05-09T01:55:03.524Z,8.7828
2024-05-09T01:56:03.166Z,8.5759
2024-05-09T01:57:05.704Z,8.3370
2024-05-09T01:58:08.210Z,8.5982
2024-05-09T01:59:10.857Z,8.6872
2024-05-09T02:00:18.798Z,8.5297
2024-05-09T02:01:16.027Z,8.7322
2024-05-09T02:02:18.701Z,9.1487
2024-05-09T02:03:21.472Z,8.7936
2024-05-09T02:04:23.941Z,9.0437
2024-05-09T02:05:26.353Z,8.6520
2024-05-09T02:06:28.908Z,8.7363
2024-05-09T02:07:31.497Z,8.9608
2024-05-09T02:08:34.222Z,8.2184
2024-05-09T02:09:36.694Z,8.5239
2024-05-09T02:10:39.270Z,8.9710
2024-05-09T02:11:41.951Z,8.5678
2024-05-09T02:12:44.423Z,8.4791
2024-05-09T02:13:47.017Z,8.8572
2024-05-09T02:14:49.714Z,8.9685
2024-05-09T02:15:52.262Z,8.9810
2024-05-09T02:16:54.831Z,8.8681
2024-05-09T02:17:57.479Z,9.1493
2024-05-09T02:19:00.013Z,9.1829
2024-05-09T02:20:02.765Z,9.2160
2024-05-09T02:21:05.256Z,8.3495
2024-05-09T02:22:07.681Z,8.5832
2024-05-09T02:23:10.368Z,8.4389
2024-05-09T02:24:12.861Z,8.5057
2024-05-09T02:25:15.557Z,8.5399
2024-05-09T02:26:18.132Z,8.6900
2024-05-09T02:27:20.631Z,8.6870
2024-05-09T02:28:23.301Z,8.4616
2024-05-09T02:29:25.916Z,8.3853
2024-05-09T02:30:36.373Z,8.6292
2024-05-09T02:31:30.958Z,8.7649
2024-05-09T02:32:33.696Z,8.8309
2024-05-09T02:33:36.479Z,9.3264
2024-05-09T02:34:38.848Z,8.8695
2024-05-09T02:35:41.455Z,8.2929
2024-05-09T02:36:43.873Z,8.7155
2024-05-09T02:37:46.664Z,9.0719
2024-05-09T02:38:49.043Z,9.1531
2024-05-09T02:39:51.625Z,8.6778
2024-05-09T02:40:54.234Z,8.8455
2024-05-09T02:41:56.793Z,8.9190
2024-05-09T02:42:59.438Z,9.0849
2024-05-09T02:44:02.021Z,9.3491
2024-05-09T02:45:04.536Z,8.6376
2024-05-09T02:46:07.161Z,8.9351
2024-05-09T02:47:09.843Z,8.4241
2024-05-09T02:48:13.379Z,9.5419
2024-05-09T02:49:14.925Z,9.2546
2024-05-09T02:50:25.998Z,9.3140
2024-05-09T02:51:20.104Z,8.6990
2024-05-09T02:52:22.620Z,8.6098
2024-05-09T02:53:25.270Z,8.7893
2024-05-09T02:54:27.819Z,9.5848
2024-05-09T02:55:30.382Z,8.8649
2024-05-09T02:56:33.027Z,9.0234
2024-05-09T02:57:35.534Z,8.1723
2024-05-09T02:58:38.164Z,8.8960
2024-05-09T02:59:40.720Z,9.2793
2024-05-09T03:00:43.434Z,8.8497
2024-05-09T03:01:46.064Z,8.9557
2024-05-09T03:02:48.619Z,8.8847
2024-05-09T03:03:51.180Z,9.1008
2024-05-09T03:04:53.764Z,9.5472
2024-05-09T03:05:56.387Z,8.9821
2024-05-09T03:06:58.843Z,8.7544
2024-05-09T03:08:01.532Z,8.5658
2024-05-09T03:09:04.000Z,9.1689
2024-05-09T03:10:12.218Z,8.9933
2024-05-09T03:11:09.248Z,8.8646
2024-05-09T03:12:12.015Z,9.6049
2024-05-09T03:13:15.606Z,9.4513
2024-05-09T03:14:17.013Z,7.9688
2024-05-09T03:15:19.478Z,9.0880
2024-05-09T03:16:22.047Z,9.3008
2024-05-09T03:17:24.921Z,9.0778
2024-05-09T03:18:27.380Z,9.6428
2024-05-09T03:19:29.886Z,8.8395
2024-05-09T03:20:34.757Z,9.1624
2024-05-09T03:21:34.994Z,9.3555
2024-05-09T03:22:37.555Z,9.3457
2024-05-09T03:23:40.232Z,8.7029
2024-05-09T03:24:42.728Z,8.5610
2024-05-09T03:25:45.394Z,8.9620
2024-05-09T03:26:47.902Z,9.1496
2024-05-09T03:27:50.484Z,10.0730
2024-05-09T03:28:53.136Z,8.5684
2024-05-09T03:29:55.657Z,9.2796
2024-05-09T03:30:58.234Z,9.1492
2024-05-09T03:32:00.954Z,8.7692
2024-05-09T03:33:03.625Z,9.2960
2024-05-09T03:34:06.183Z,8.9000
2024-05-09T03:35:08.625Z,9.3648
2024-05-09T03:36:11.537Z,9.0953
2024-05-09T03:37:13.784Z,9.4655
2024-05-09T03:38:16.572Z,9.2441
2024-05-09T03:39:18.927Z,9.3657
2024-05-09T03:40:26.358Z,8.8044
2024-05-09T03:41:24.159Z,9.1878
2024-05-09T03:42:26.685Z,8.5730
2024-05-09T03:43:29.253Z,9.1267
2024-05-09T03:44:31.928Z,9.2952
2024-05-09T03:45:34.452Z,8.9261
2024-05-09T03:46:37.034Z,9.4289
2024-05-09T03:47:39.782Z,9.4197
2024-05-09T03:48:42.308Z,8.9915
2024-05-09T03:49:44.862Z,9.6873
2024-05-09T03:50:47.474Z,9.0282
2024-05-09T03:51:49.939Z,8.9928
2024-05-09T03:52:52.655Z,8.9814
2024-05-09T03:53:55.177Z,9.5993
2024-05-09T03:54:57.736Z,8.9662
2024-05-09T03:56:00.394Z,9.1671
2024-05-09T03:57:02.877Z,9.4948
2024-05-09T03:58:05.455Z,8.9309
2024-05-09T03:59:08.089Z,9.0984
2024-05-09T04:00:17.824Z,9.5987
2024-05-09T04:01:13.252Z,9.1838
2024-05-09T04:02:15.864Z,9.2635
2024-05-09T04:03:18.758Z,9.4985
2024-05-09T04:04:21.090Z,9.0046
2024-05-09T04:05:23.562Z,9.3148
2024-05-09T04:06:26.176Z,8.8066
2024-05-09T04:07:28.773Z,8.8229
2024-05-09T04:08:31.367Z,9.0255
2024-05-09T04:09:33.903Z,9.0761
2024-05-09T04:10:36.472Z,8.3273
2024-05-09T04:11:39.156Z,9.2131
2024-05-09T04:12:41.666Z,9.2051
2024-05-09T04:13:44.261Z,8.9564
2024-05-09T04:14:46.823Z,8.6988
2024-05-09T04:15:49.406Z,8.8446
2024-05-09T04:16:52.076Z,8.8345
2024-05-09T04:17:54.922Z,9.0349
2024-05-09T04:18:57.270Z,8.7834
2024-05-09T04:19:59.787Z,9.3019
2024-05-09T04:21:02.501Z,8.9216
2024-05-09T04:22:04.912Z,8.3785
2024-05-09T04:23:08.603Z,8.6701
2024-05-09T04:24:10.066Z,9.0999
2024-05-09T04:25:12.683Z,9.0618
2024-05-09T04:26:15.266Z,9.2344
2024-05-09T04:27:17.871Z,9.1414
2024-05-09T04:28:20.400Z,9.3247
2024-05-09T04:29:23.041Z,9.2566
2024-05-09T04:30:34.035Z,9.6873
2024-05-09T04:31:28.166Z,9.4132
2024-05-09T04:32:30.954Z,9.5820
2024-05-09T04:33:33.575Z,9.2388
2024-05-09T04:34:36.031Z,9.3860
2024-05-09T04:35:38.913Z,8.5187
2024-05-09T04:36:43.861Z,9.1656
2024-05-09T04:37:43.762Z,8.9919
2024-05-09T04:38:46.310Z,8.9502
2024-05-09T04:39:48.843Z,9.4301
2024-05-09T04:40:51.529Z,9.1048
2024-05-09T04:41:54.018Z,9.0059
2024-05-09T04:42:56.610Z,9.2513
2024-05-09T04:43:59.206Z,8.9294
2024-05-09T04:45:01.764Z,8.7991
2024-05-09T04:46:04.345Z,8.7116
2024-05-09T04:47:06.984Z,9.4949
2024-05-09T04:48:09.806Z,9.7291
2024-05-09T04:49:12.214Z,9.6362
2024-05-09T04:50:20.987Z,8.7934
2024-05-09T04:51:17.323Z,8.4485
2024-05-09T04:52:19.889Z,9.5471
2024-05-09T04:53:22.512Z,9.7369
2024-05-09T04:54:33.809Z,9.3868
2024-05-09T04:55:27.677Z,9.2865
2024-05-09T04:56:30.234Z,8.7703
2024-05-09T04:57:32.785Z,9.2110
2024-05-09T04:58:35.371Z,9.0822
2024-05-09T04:59:38.018Z,9.1214
2024-05-09T05:00:41.326Z,8.8394
2024-05-09T05:01:43.118Z,9.3422
2024-05-09T05:02:45.784Z,9.2485
2024-05-09T05:03:48.420Z,8.6164
2024-05-09T05:04:51.021Z,9.0897
2024-05-09T05:05:53.512Z,9.1049
2024-05-09T05:06:57.779Z,9.2583
2024-05-09T05:07:58.695Z,8.7147
2024-05-09T05:09:01.245Z,8.8378
2024-05-09T05:10:05.749Z,9.2509
2024-05-09T05:11:06.447Z,8.9581
2024-05-09T05:12:09.165Z,8.5066
2024-05-09T05:13:11.577Z,8.5666
2024-05-09T05:14:14.180Z,9.5634
2024-05-09T05:15:16.732Z,8.6964
2024-05-09T05:16:19.322Z,9.9324
2024-05-09T05:17:22.010Z,9.1414
2024-05-09T05:18:24.650Z,9.5788
2024-05-09T05:19:27.299Z,9.6733
2024-05-09T05:20:33.593Z,9.3315
2024-05-09T05:21:32.334Z,9.4610
2024-05-09T05:22:34.870Z,8.9176
2024-05-09T05:23:37.505Z,9.9227
2024-05-09T05:24:39.991Z,9.4449
2024-05-09T05:25:42.585Z,9.4664
2024-05-09T05:26:45.193Z,9.5403
2024-05-09T05:27:47.743Z,9.1231
2024-05-09T05:28:50.377Z,8.9768
2024-05-09T05:29:52.941Z,8.8866
2024-05-09T05:30:55.522Z,8.9392
2024-05-09T05:31:58.210Z,9.2908
2024-05-09T05:33:01.001Z,8.7258
2024-05-09T05:34:03.355Z,9.3496
2024-05-09T05:35:05.913Z,8.7879
2024-05-09T05:36:08.466Z,8.8430
2024-05-09T05:37:11.008Z,9.0563
2024-05-09T05:38:13.657Z,8.3304
2024-05-09T05:39:16.249Z,8.9873
2024-05-09T05:40:28.014Z,9.0551
2024-05-09T05:41:21.432Z,8.6846
2024-05-09T05:42:24.004Z,8.8477
2024-05-09T05:43:26.591Z,8.7933
2024-05-09T05:44:29.306Z,8.9608
2024-05-09T05:45:31.757Z,9.3424
2024-05-09T05:46:34.359Z,9.5027
2024-05-09T05:47:37.043Z,9.1106
2024-05-09T05:48:39.795Z,9.3271
2024-05-09T05:49:42.139Z,9.3904
2024-05-09T05:50:44.779Z,9.0628
2024-05-09T05:51:47.314Z,8.9201
2024-05-09T05:52:49.882Z,9.4616
2024-05-09T05:53:52.459Z,9.1150
2024-05-09T05:54:55.048Z,9.7538
2024-05-09T05:55:57.682Z,9.4620
2024-05-09T05:57:00.216Z,9.5956
2024-05-09T05:58:02.875Z,8.9389
2024-05-09T05:59:05.417Z,9.4872
2024-05-09T06:00:09.782Z,9.3560
2024-05-09T06:01:10.562Z,9.5162
2024-05-09T06:02:13.230Z,9.4974
2024-05-09T06:03:15.838Z,9.5509
2024-05-09T06:04:18.455Z,9.5467
2024-05-09T06:05:20.898Z,9.2459
2024-05-09T06:06:23.469Z,9.0576
2024-05-09T06:07:26.031Z,9.1379
2024-05-09T06:08:30.532Z,9.2776
2024-05-09T06:09:31.276Z,8.8275
2024-05-09T06:10:38.868Z,9.0428
2024-05-09T06:11:36.434Z,9.7486
2024-05-09T06:12:38.969Z,9.0372
2024-05-09T06:13:41.537Z,9.7314
2024-05-09T06:14:44.123Z,9.6112
2024-05-09T06:15:46.720Z,9.3090
2024-05-09T06:16:49.337Z,9.5979
2024-05-09T06:17:51.999Z,9.4314
2024-05-09T06:18:54.688Z,9.2768
2024-05-09T06:19:57.074Z,8.9558
2024-05-09T06:20:59.679Z,8.7256
2024-05-09T06:22:02.218Z,9.4381
2024-05-09T06:23:05.062Z,9.6318
2024-05-09T06:24:07.384Z,9.6633
2024-05-09T06:25:09.983Z,9.7431
2024-05-09T06:26:12.583Z,9.7495
2024-05-09T06:27:15.146Z,9.9293
2024-05-09T06:28:17.710Z,9.7171
2024-05-09T06:29:20.341Z,9.7894
2024-05-09T06:30:30.277Z,9.6406
2024-05-09T06:31:25.476Z,9.4670
2024-05-09T06:32:28.237Z,9.0591
2024-05-09T06:33:30.853Z,9.5398
2024-05-09T06:34:33.387Z,9.1539
2024-05-09T06:35:36.114Z,9.9549
2024-05-09T06:36:38.514Z,9.8713
2024-05-09T06:37:40.968Z,9.2746
2024-05-09T06:38:43.566Z,9.9413
2024-05-09T06:39:46.136Z,9.7155
2024-05-09T06:40:48.783Z,9.5355
2024-05-09T06:41:51.317Z,10.2387
2024-05-09T06:42:53.881Z,9.5359
2024-05-09T06:43:56.513Z,9.1844
2024-05-09T06:44:59.072Z,9.0925
2024-05-09T06:46:01.663Z,9.4387
2024-05-09T06:47:04.324Z,9.2178
2024-05-09T06:48:07.080Z,9.0662
2024-05-09T06:49:09.560Z,9.1182
2024-05-09T06:50:20.217Z,9.1864
2024-05-09T06:51:14.729Z,9.0332
2024-05-09T06:52:17.157Z,9.0629
2024-05-09T06:53:19.755Z,9.6747
2024-05-09T06:54:22.331Z,9.7902
2024-05-09T06:55:24.891Z,9.8525
2024-05-09T06:56:27.518Z,9.1848
2024-05-09T06:57:30.075Z,9.7704
2024-05-09T06:58:32.649Z,8.9005
2024-05-09T06:59:35.380Z,9.3574
2024-05-09T07:00:40.340Z,8.9529
2024-05-09T07:01:40.483Z,9.6352
2024-05-09T07:02:43.116Z,9.1021
2024-05-09T07:03:45.733Z,9.5314
2024-05-09T07:04:48.244Z,8.9520
2024-05-09T07:05:50.757Z,9.1453
2024-05-09T07:06:53.370Z,9.0980
2024-05-09T07:07:55.916Z,9.2696
2024-05-09T07:08:58.527Z,9.1693
2024-05-09T07:10:01.086Z,9.4547
2024-05-09T07:11:03.809Z,8.9856
2024-05-09T07:12:06.373Z,9.4071
2024-05-09T07:13:08.823Z,9.6432
2024-05-09T07:14:11.495Z,9.7508
2024-05-09T07:15:13.984Z,9.3014
2024-05-09T07:16:16.625Z,9.1900
2024-05-09T07:17:19.269Z,8.8942
2024-05-09T07:18:21.941Z,9.0775
2024-05-09T07:19:24.576Z,9.5491
2024-05-09T07:20:34.085Z,9.2063
2024-05-09T07:21:29.485Z,9.3480
2024-05-09T07:22:32.064Z,9.3850
2024-05-09T07:23:34.815Z,9.0153
2024-05-09T07:24:37.240Z,8.9172
2024-05-09T07:25:39.832Z,8.6659
2024-05-09T07:26:42.463Z,9.1654
2024-05-09T07:27:44.972Z,9.6441
2024-05-09T07:28:47.618Z,9.5850
2024-05-09T07:29:50.134Z,9.1596
2024-05-09T07:30:52.729Z,9.1069
2024-05-09T07:31:55.343Z,8.8666
2024-05-09T07:32:58.115Z,9.2140
2024-05-09T07:34:00.705Z,8.9780
2024-05-09T07:35:03.182Z,9.0410
2024-05-09T07:36:05.657Z,8.8565
2024-05-09T07:37:08.262Z,8.3138
2024-05-09T07:38:10.862Z,8.3631
2024-05-09T07:39:13.367Z,8.3769
2024-05-09T07:40:24.882Z,8.3669
2024-05-09T07:41:18.594Z,8.6665
2024-05-09T07:42:21.126Z,8.8707
2024-05-09T07:43:23.743Z,8.8788
2024-05-09T07:44:26.285Z,8.8814
2024-05-09T07:45:45.219Z,8.6563
2024-05-09T07:47:37.114Z,9.2529
2024-05-09T07:50:34.437Z,8.7514
2024-05-09T07:53:14.438Z,8.2889
2024-05-09T07:53:34.619Z,7.9998
2024-05-09T07:53:52.382Z,8.6473
2024-05-09T07:54:52.293Z,8.6431
2024-05-09T07:55:55.248Z,9.0924
2024-05-09T07:56:57.564Z,8.9498
2024-05-09T07:57:59.914Z,8.9415
2024-05-09T07:59:02.457Z,8.7176
2024-05-09T08:00:06.655Z,9.3576
2024-05-09T08:01:07.715Z,8.9076
2024-05-09T08:02:10.374Z,9.0606
2024-05-09T08:03:12.859Z,8.6294
2024-05-09T08:04:15.469Z,8.6883
2024-05-09T08:05:18.102Z,8.3799
2024-05-09T08:06:20.538Z,8.1475
2024-05-09T08:07:23.192Z,9.0598
2024-05-09T08:08:25.722Z,8.8963
2024-05-09T08:09:28.339Z,9.1240
2024-05-09T08:10:30.960Z,7.8848
2024-05-09T08:11:33.504Z,8.2635
2024-05-09T08:12:36.099Z,7.9868
2024-05-09T08:13:38.725Z,8.1095
2024-05-09T08:14:41.213Z,8.4766
2024-05-09T08:15:43.896Z,8.2557
2024-05-09T08:16:46.390Z,8.4095
2024-05-09T08:17:49.063Z,8.8878
2024-05-09T08:18:51.671Z,8.4793
2024-05-09T08:19:54.136Z,8.1710
2024-05-09T08:20:56.719Z,7.4642
2024-05-09T08:21:59.341Z,8.4671
2024-05-09T08:23:01.887Z,8.5146
2024-05-09T08:24:04.485Z,11.3533
2024-05-09T08:25:07.076Z,20.6921
2024-05-09T08:26:09.639Z,31.6602
2024-05-09T08:27:12.242Z,43.7213
2024-05-09T08:28:14.852Z,59.8705
2024-05-09T08:29:17.407Z,65.7528
2024-05-09T08:30:25.304Z,71.7049
2024-05-09T08:31:22.792Z,79.9907
2024-05-09T08:32:25.185Z,59.8198
2024-05-09T08:33:27.835Z,80.6341
2024-05-09T08:34:30.358Z,72.8502
2024-05-09T08:35:32.934Z,68.4190
2024-05-09T08:36:35.513Z,63.0465
2024-05-09T08:37:40.483Z,64.7819
2024-05-09T08:38:40.656Z,63.9891
2024-05-09T08:39:43.258Z,81.8242
2024-05-09T08:40:45.898Z,118.1788
2024-05-09T08:41:48.398Z,97.8842
2024-05-09T08:42:51.003Z,73.5462
2024-05-09T08:43:53.562Z,70.8194
2024-05-09T08:44:56.133Z,60.4575
2024-05-09T08:45:58.766Z,62.4918
2024-05-09T08:47:01.385Z,74.6921
2024-05-09T08:48:04.070Z,74.6433
2024-05-09T08:49:06.642Z,75.9188
2024-05-09T08:50:13.783Z,79.0059
2024-05-09T08:51:11.641Z,71.3635
2024-05-09T08:52:14.229Z,72.4153
2024-05-09T08:53:16.822Z,76.5480
2024-05-09T08:54:19.395Z,74.8062
2024-05-09T08:55:21.994Z,76.3278
2024-05-09T08:56:24.600Z,77.3783
2024-05-09T08:57:27.228Z,83.0641
2024-05-09T08:58:29.721Z,86.2552
2024-05-09T08:59:32.340Z,83.8079
2024-05-09T09:00:37.310Z,76.8990
2024-05-09T09:01:38.136Z,79.1725
2024-05-09T09:02:40.250Z,81.8067
2024-05-09T09:03:42.848Z,84.8736
2024-05-09T09:04:45.295Z,89.3207
2024-05-09T09:05:47.839Z,89.9980
2024-05-09T09:06:51.453Z,88.1703
2024-05-09T09:07:52.975Z,82.5520
2024-05-09T09:08:55.550Z,77.9996
2024-05-09T09:09:58.154Z,76.7446
2024-05-09T09:11:00.761Z,72.4865
2024-05-09T09:12:03.327Z,76.4827
2024-05-09T09:13:05.932Z,81.2983
2024-05-09T09:14:08.484Z,80.3614
2024-05-09T09:15:11.076Z,81.3037
2024-05-09T09:16:13.750Z,74.2088
2024-05-09T09:17:16.338Z,74.5284
2024-05-09T09:18:19.292Z,69.4560
2024-05-09T09:19:21.581Z,74.4146
2024-05-09T09:20:29.402Z,65.3318
2024-05-09T09:21:26.773Z,61.6527
2024-05-09T09:22:29.164Z,60.4857
2024-05-09T09:23:31.880Z,58.0398
2024-05-09T09:24:34.373Z,62.0379
2024-05-09T09:25:36.920Z,57.9775
2024-05-09T09:26:39.503Z,57.0609
2024-05-09T09:27:42.167Z,56.5332
2024-05-09T09:28:44.669Z,58.0384
2024-05-09T09:29:47.293Z,54.4481
2024-05-09T09:30:49.905Z,62.2381
2024-05-09T09:31:52.445Z,62.6003
2024-05-09T09:32:55.123Z,57.2093
2024-05-09T09:33:57.936Z,56.1212
2024-05-09T09:35:00.237Z,63.8021
2024-05-09T09:36:02.753Z,62.3096
2024-05-09T09:37:05.404Z,57.5037
2024-05-09T09:38:07.992Z,61.2007
2024-05-09T09:39:10.560Z,62.9882
2024-05-09T09:40:13.468Z,65.0841
2024-05-09T09:41:15.758Z,62.5192
2024-05-09T09:42:18.265Z,60.2138
2024-05-09T09:43:21.177Z,57.8516
2024-05-09T09:44:23.412Z,63.0941
2024-05-09T09:45:26.053Z,63.6973
2024-05-09T09:46:28.740Z,62.1514
2024-05-09T09:47:31.300Z,60.4949
2024-05-09T09:48:34.080Z,65.5751
2024-05-09T09:49:36.411Z,61.7959
2024-05-09T09:50:38.965Z,60.2797
2024-05-09T09:51:41.608Z,62.4923
2024-05-09T09:52:44.123Z,64.5965
2024-05-09T09:53:46.748Z,67.7110
2024-05-09T09:54:49.381Z,66.4730
2024-05-09T09:55:51.897Z,65.1046
2024-05-09T09:56:54.453Z,65.2749
2024-05-09T09:57:57.112Z,65.7010
2024-05-09T09:58:59.621Z,64.1220
2024-05-09T10:00:03.119Z,62.5719
2024-05-09T10:01:04.986Z,64.2878
2024-05-09T10:02:07.600Z,65.4020
2024-05-09T10:03:10.133Z,64.9701
2024-05-09T10:04:12.692Z,59.3929
2024-05-09T10:05:15.160Z,57.8043
2024-05-09T10:06:17.681Z,56.3085
2024-05-09T10:07:20.354Z,54.0664
2024-05-09T10:08:22.858Z,56.5982
2024-05-09T10:09:25.473Z,55.9277
2024-05-09T10:10:32.317Z,54.3720
2024-05-09T10:11:31.679Z,55.9656
2024-05-09T10:12:33.267Z,59.8050
2024-05-09T10:13:35.863Z,59.1801
2024-05-09T10:14:38.342Z,55.6636
2024-05-09T10:15:40.966Z,52.7651
2024-05-09T10:16:43.528Z,51.1660
2024-05-09T10:17:46.150Z,52.9726
2024-05-09T10:18:48.861Z,52.9821
2024-05-09T10:19:51.389Z,51.0705
2024-05-09T10:20:53.826Z,52.3917
2024-05-09T10:21:56.427Z,48.8673
2024-05-09T10:22:59.055Z,48.9277
2024-05-09T10:24:01.583Z,44.8582
2024-05-09T10:25:05.108Z,46.5510
2024-05-09T10:26:06.748Z,48.9074
2024-05-09T10:27:09.400Z,47.7086
2024-05-09T10:28:12.081Z,46.5607
2024-05-09T10:29:14.517Z,49.1460
2024-05-09T10:30:25.816Z,53.2512
2024-05-09T10:31:19.683Z,56.5501
2024-05-09T10:32:22.363Z,54.9173
2024-05-09T10:33:24.987Z,54.9361
2024-05-09T10:34:27.632Z,50.6072
2024-05-09T10:35:30.023Z,47.2145
2024-05-09T10:36:32.644Z,44.6889
2024-05-09T10:37:35.236Z,41.9687
2024-05-09T10:38:37.748Z,48.3395
2024-05-09T10:39:40.359Z,48.0427
2024-05-09T10:40:42.964Z,46.6629
2024-05-09T10:41:45.493Z,48.3598
2024-05-09T10:42:48.183Z,45.0856
2024-05-09T10:43:50.705Z,44.6084
2024-05-09T10:44:53.338Z,46.2597
2024-05-09T10:45:55.856Z,46.7837
2024-05-09T10:46:58.437Z,47.9507
2024-05-09T10:48:01.163Z,47.4791
2024-05-09T10:49:06.294Z,44.2152
2024-05-09T10:50:12.710Z,44.7491
2024-05-09T10:51:08.744Z,48.7043
2024-05-09T10:52:11.350Z,48.7566
2024-05-09T10:53:13.895Z,47.4120
2024-05-09T10:54:16.509Z,44.5712
2024-05-09T10:55:19.285Z,42.5326
2024-05-09T10:56:21.663Z,42.4922
2024-05-09T10:57:24.230Z,42.0384
2024-05-09T10:58:26.805Z,39.3176
2024-05-09T10:59:29.400Z,42.9754
2024-05-09T11:00:35.863Z,45.7448
2024-05-09T11:01:34.639Z,46.2540
2024-05-09T11:02:37.291Z,46.2694
2024-05-09T11:03:40.127Z,45.1900
2024-05-09T11:04:42.485Z,46.0723
2024-05-09T11:05:45.094Z,45.5769
2024-05-09T11:06:47.532Z,45.6197
2024-05-09T11:07:50.071Z,45.5981
2024-05-09T11:08:52.649Z,44.2768
2024-05-09T11:09:55.301Z,45.1081
2024-05-09T11:10:57.855Z,44.1030
2024-05-09T11:12:00.463Z,44.1960
2024-05-09T11:13:03.048Z,44.8571
2024-05-09T11:14:05.565Z,41.2721
2024-05-09T11:15:08.180Z,42.9018
2024-05-09T11:16:10.801Z,42.1347
2024-05-09T11:17:13.322Z,42.3553
2024-05-09T11:18:16.063Z,41.5910
2024-05-09T11:19:18.673Z,40.7478
2024-05-09T11:20:26.942Z,42.0228
2024-05-09T11:21:23.652Z,42.1671
2024-05-09T11:22:26.289Z,40.4293
2024-05-09T11:23:28.804Z,42.3268
2024-05-09T11:24:31.407Z,42.1221
2024-05-09T11:25:33.975Z,41.3316
2024-05-09T11:26:36.612Z,40.3670
2024-05-09T11:27:39.184Z,42.4199
2024-05-09T11:28:41.734Z,43.5390
2024-05-09T11:29:44.315Z,43.0886
2024-05-09T11:30:46.983Z,41.2696
2024-05-09T11:31:49.668Z,42.2975
2024-05-09T11:32:52.298Z,42.3091
2024-05-09T11:33:54.846Z,43.1905
2024-05-09T11:34:57.244Z,41.4362
2024-05-09T11:35:59.823Z,41.7273
2024-05-09T11:37:02.494Z,40.8849
2024-05-09T11:38:04.995Z,40.4427
2024-05-09T11:39:07.593Z,39.1835
2024-05-09T11:40:16.814Z,38.4285
2024-05-09T11:41:12.774Z,40.5440
2024-05-09T11:42:15.326Z,39.3266
2024-05-09T11:43:18.053Z,39.5859
2024-05-09T11:44:20.523Z,40.0483
2024-05-09T11:45:23.148Z,39.2481
2024-05-09T11:46:25.819Z,40.1971
2024-05-09T11:47:28.289Z,40.0644
2024-05-09T11:48:31.148Z,38.4560
2024-05-09T11:49:33.563Z,38.3074
2024-05-09T11:50:36.444Z,38.7174
2024-05-09T11:51:38.637Z,37.9331
2024-05-09T11:52:41.164Z,38.5324
2024-05-09T11:53:43.762Z,38.9444
2024-05-09T11:54:46.381Z,37.9692
2024-05-09T11:55:48.946Z,38.1112
2024-05-09T11:56:51.604Z,37.0554
2024-05-09T11:57:54.097Z,37.4238
2024-05-09T11:58:56.664Z,36.1642
2024-05-09T11:59:59.249Z,36.1893
2024-05-09T12:01:01.979Z,35.6223
2024-05-09T12:02:04.589Z,35.8433
2024-05-09T12:03:07.099Z,36.7667
2024-05-09T12:04:09.699Z,35.9017
2024-05-09T12:05:12.246Z,36.0044
2024-05-09T12:06:14.769Z,36.9072
2024-05-09T12:07:17.439Z,36.6142
2024-05-09T12:08:19.934Z,35.9828
2024-05-09T12:09:22.494Z,36.0245
2024-05-09T12:10:32.125Z,35.5534
2024-05-09T12:11:27.703Z,35.9581
2024-05-09T12:12:30.302Z,34.0141
2024-05-09T12:13:32.957Z,34.5294
2024-05-09T12:14:35.447Z,35.8381
2024-05-09T12:15:38.879Z,35.1761
2024-05-09T12:16:40.653Z,33.4414
2024-05-09T12:17:43.288Z,34.1704
2024-05-09T12:18:45.904Z,33.5593
2024-05-09T12:19:48.419Z,32.7239
2024-05-09T12:20:50.949Z,34.0706
2024-05-09T12:21:53.553Z,34.6707
2024-05-09T12:22:56.099Z,33.1649
2024-05-09T12:23:58.679Z,32.1304
2024-05-09T12:25:01.316Z,31.5294
2024-05-09T12:26:03.868Z,32.8689
2024-05-09T12:27:06.457Z,30.5141
2024-05-09T12:28:09.198Z,30.6879
2024-05-09T12:29:11.622Z,29.8486
2024-05-09T12:30:20.729Z,30.2667
2024-05-09T12:31:16.807Z,30.7569
2024-05-09T12:32:19.420Z,31.7995
2024-05-09T12:33:22.144Z,31.5341
2024-05-09T12:34:24.574Z,32.9290
2024-05-09T12:35:27.152Z,31.1241
2024-05-09T12:36:29.702Z,29.9103
2024-05-09T12:37:32.313Z,28.8400
2024-05-09T12:38:34.915Z,29.9719
2024-05-09T12:39:37.538Z,29.5008
2024-05-09T12:40:40.152Z,30.0833
2024-05-09T12:41:42.658Z,30.2942
2024-05-09T12:42:45.273Z,31.6933
2024-05-09T12:43:47.807Z,31.1471
2024-05-09T12:44:50.401Z,30.4508
2024-05-09T12:45:53.027Z,29.4142
2024-05-09T12:46:55.560Z,27.8474
2024-05-09T12:47:58.316Z,28.2234
2024-05-09T12:49:01.127Z,27.8214
2024-05-09T12:50:04.952Z,28.7431
2024-05-09T12:51:05.910Z,29.7196
2024-05-09T12:52:08.630Z,29.7125
2024-05-09T12:53:11.067Z,29.5888
2024-05-09T12:54:13.654Z,29.7859
2024-05-09T12:55:16.410Z,28.5506